sensor_id;sensor_type;location;lat;lon;timestamp;P1;durP1;ratioP1;P2;durP2;ratioP2
39022;SDS011;25908;51.984;5.928;2023-04-24T00:00:07;7.75;;;4.63;;
39022;SDS011;25908;51.984;5.928;2023-04-24T00:02:35;4.78;;;4.03;;
39022;SDS011;25908;51.984;5.928;2023-04-24T00:05:04;6.15;;;4.78;;
39022;SDS011;25908;51.984;5.928;2023-04-24T00:07:31;6.10;;;5.40;;
39022;SDS011;25908;51.984;5.928;2023-04-24T00:09:57;5.90;;;4.85;;
39022;SDS011;25908;51.984;5.928;2023-04-24T00:12:23;6.78;;;5.50;;
39022;SDS011;25908;51.984;5.928;2023-04-24T00:14:50;6.43;;;5.72;;
39022;SDS011;25908;51.984;5.928;2023-04-24T00:17:15;6.63;;;5.53;;
39022;SDS011;25908;51.984;5.928;2023-04-24T00:19:44;6.47;;;5.68;;
39022;SDS011;25908;51.984;5.928;2023-04-24T00:22:11;6.80;;;5.88;;
39022;SDS011;25908;51.984;5.928;2023-04-24T00:24:38;6.30;;;5.40;;
39022;SDS011;25908;51.984;5.928;2023-04-24T00:27:04;5.85;;;4.97;;
39022;SDS011;25908;51.984;5.928;2023-04-24T00:29:30;4.53;;;3.90;;
39022;SDS011;25908;51.984;5.928;2023-04-24T00:31:56;4.22;;;3.30;;
39022;SDS011;25908;51.984;5.928;2023-04-24T00:34:21;3.15;;;2.50;;
39022;SDS011;25908;51.984;5.928;2023-04-24T00:36:47;3.35;;;2.28;;
39022;SDS011;25908;51.984;5.928;2023-04-24T00:39:17;3.15;;;1.98;;
39022;SDS011;25908;51.984;5.928;2023-04-24T00:41:45;4.10;;;2.30;;
39022;SDS011;25908;51.984;5.928;2023-04-24T00:44:13;3.63;;;1.88;;
39022;SDS011;25908;51.984;5.928;2023-04-24T00:46:40;3.85;;;1.85;;
39022;SDS011;25908;51.984;5.928;2023-04-24T00:49:06;2.15;;;1.52;;
39022;SDS011;25908;51.984;5.928;2023-04-24T00:51:32;2.10;;;1.42;;
39022;SDS011;25908;51.984;5.928;2023-04-24T00:53:58;2.20;;;1.70;;
39022;SDS011;25908;51.984;5.928;2023-04-24T00:56:24;2.08;;;1.40;;
39022;SDS011;25908;51.984;5.928;2023-04-24T00:58:51;2.78;;;1.58;;
39022;SDS011;25908;51.984;5.928;2023-04-24T01:01:18;2.30;;;1.80;;
39022;SDS011;25908;51.984;5.928;2023-04-24T01:03:46;4.13;;;2.22;;
39022;SDS011;25908;51.984;5.928;2023-04-24T01:06:13;3.17;;;2.20;;
39022;SDS011;25908;51.984;5.928;2023-04-24T01:08:39;5.82;;;3.30;;
39022;SDS011;25908;51.984;5.928;2023-04-24T01:11:06;4.55;;;3.20;;
39022;SDS011;25908;51.984;5.928;2023-04-24T01:13:32;5.60;;;4.03;;
39022;SDS011;25908;51.984;5.928;2023-04-24T01:15:58;6.60;;;5.00;;
39022;SDS011;25908;51.984;5.928;2023-04-24T01:18:25;8.77;;;6.40;;
39022;SDS011;25908;51.984;5.928;2023-04-24T01:20:53;11.90;;;9.27;;
39022;SDS011;25908;51.984;5.928;2023-04-24T01:23:21;10.60;;;8.87;;
39022;SDS011;25908;51.984;5.928;2023-04-24T01:25:48;14.25;;;10.43;;
39022;SDS011;25908;51.984;5.928;2023-04-24T01:28:14;16.35;;;12.88;;
39022;SDS011;25908;51.984;5.928;2023-04-24T01:30:40;15.80;;;12.23;;
39022;SDS011;25908;51.984;5.928;2023-04-24T01:33:06;14.80;;;11.40;;
39022;SDS011;25908;51.984;5.928;2023-04-24T01:35:32;15.68;;;12.13;;
39022;SDS011;25908;51.984;5.928;2023-04-24T01:37:58;17.00;;;12.65;;
39022;SDS011;25908;51.984;5.928;2023-04-24T01:40:24;17.77;;;12.85;;
39022;SDS011;25908;51.984;5.928;2023-04-24T01:42:50;17.55;;;12.93;;
39022;SDS011;25908;51.984;5.928;2023-04-24T01:45:16;17.67;;;13.45;;
39022;SDS011;25908;51.984;5.928;2023-04-24T01:47:42;17.27;;;13.15;;
39022;SDS011;25908;51.984;5.928;2023-04-24T01:50:09;16.38;;;13.10;;
39022;SDS011;25908;51.984;5.928;2023-04-24T01:52:34;16.58;;;13.93;;
39022;SDS011;25908;51.984;5.928;2023-04-24T01:55:01;16.45;;;13.13;;
39022;SDS011;25908;51.984;5.928;2023-04-24T01:57:31;19.23;;;13.13;;
39022;SDS011;25908;51.984;5.928;2023-04-24T01:59:57;13.80;;;11.13;;
39022;SDS011;25908;51.984;5.928;2023-04-24T02:02:23;13.20;;;10.90;;
39022;SDS011;25908;51.984;5.928;2023-04-24T02:04:54;12.70;;;10.30;;
39022;SDS011;25908;51.984;5.928;2023-04-24T02:07:22;12.52;;;9.50;;
39022;SDS011;25908;51.984;5.928;2023-04-24T02:09:48;13.20;;;9.75;;
39022;SDS011;25908;51.984;5.928;2023-04-24T02:12:14;13.70;;;10.57;;
39022;SDS011;25908;51.984;5.928;2023-04-24T02:14:40;14.70;;;11.13;;
39022;SDS011;25908;51.984;5.928;2023-04-24T02:17:07;15.18;;;12.35;;
39022;SDS011;25908;51.984;5.928;2023-04-24T02:19:33;16.77;;;13.80;;
39022;SDS011;25908;51.984;5.928;2023-04-24T02:22:00;16.92;;;14.65;;
39022;SDS011;25908;51.984;5.928;2023-04-24T02:24:26;16.55;;;14.40;;
39022;SDS011;25908;51.984;5.928;2023-04-24T02:26:51;20.38;;;15.70;;
39022;SDS011;25908;51.984;5.928;2023-04-24T02:29:17;20.38;;;17.38;;
39022;SDS011;25908;51.984;5.928;2023-04-24T02:31:42;19.67;;;16.15;;
39022;SDS011;25908;51.984;5.928;2023-04-24T02:34:08;19.58;;;16.85;;
39022;SDS011;25908;51.984;5.928;2023-04-24T02:36:34;22.33;;;17.42;;
39022;SDS011;25908;51.984;5.928;2023-04-24T02:39:00;19.60;;;16.90;;
39022;SDS011;25908;51.984;5.928;2023-04-24T02:41:26;19.55;;;15.82;;
39022;SDS011;25908;51.984;5.928;2023-04-24T02:43:56;22.48;;;17.27;;
39022;SDS011;25908;51.984;5.928;2023-04-24T02:46:25;21.83;;;17.75;;
39022;SDS011;25908;51.984;5.928;2023-04-24T02:48:51;19.20;;;16.00;;
39022;SDS011;25908;51.984;5.928;2023-04-24T02:51:17;21.67;;;17.67;;
39022;SDS011;25908;51.984;5.928;2023-04-24T02:53:42;22.10;;;16.98;;
39022;SDS011;25908;51.984;5.928;2023-04-24T02:56:08;18.85;;;15.63;;
39022;SDS011;25908;51.984;5.928;2023-04-24T02:58:37;22.20;;;17.45;;
39022;SDS011;25908;51.984;5.928;2023-04-24T03:01:02;22.63;;;16.55;;
39022;SDS011;25908;51.984;5.928;2023-04-24T03:03:28;19.15;;;15.95;;
39022;SDS011;25908;51.984;5.928;2023-04-24T03:05:54;18.17;;;15.35;;
39022;SDS011;25908;51.984;5.928;2023-04-24T03:08:21;19.27;;;15.60;;
39022;SDS011;25908;51.984;5.928;2023-04-24T03:10:47;19.83;;;15.45;;
39022;SDS011;25908;51.984;5.928;2023-04-24T03:13:13;23.48;;;15.80;;
39022;SDS011;25908;51.984;5.928;2023-04-24T03:15:40;21.63;;;15.73;;
39022;SDS011;25908;51.984;5.928;2023-04-24T03:18:05;17.20;;;14.20;;
39022;SDS011;25908;51.984;5.928;2023-04-24T03:20:31;16.63;;;14.20;;
39022;SDS011;25908;51.984;5.928;2023-04-24T03:22:56;18.77;;;14.57;;
39022;SDS011;25908;51.984;5.928;2023-04-24T03:25:22;19.65;;;15.32;;
39022;SDS011;25908;51.984;5.928;2023-04-24T03:27:48;17.92;;;14.65;;
39022;SDS011;25908;51.984;5.928;2023-04-24T03:30:13;17.42;;;14.73;;
39022;SDS011;25908;51.984;5.928;2023-04-24T03:32:40;17.83;;;14.20;;
39022;SDS011;25908;51.984;5.928;2023-04-24T03:35:07;18.58;;;13.98;;
39022;SDS011;25908;51.984;5.928;2023-04-24T03:37:33;18.02;;;14.77;;
39022;SDS011;25908;51.984;5.928;2023-04-24T03:39:59;18.98;;;15.10;;
39022;SDS011;25908;51.984;5.928;2023-04-24T03:42:25;18.88;;;15.68;;
39022;SDS011;25908;51.984;5.928;2023-04-24T03:44:51;16.73;;;14.80;;
39022;SDS011;25908;51.984;5.928;2023-04-24T03:47:16;18.67;;;14.80;;
39022;SDS011;25908;51.984;5.928;2023-04-24T03:49:42;22.88;;;19.02;;
39022;SDS011;25908;51.984;5.928;2023-04-24T03:52:07;24.02;;;19.40;;
39022;SDS011;25908;51.984;5.928;2023-04-24T03:54:33;22.42;;;19.55;;
39022;SDS011;25908;51.984;5.928;2023-04-24T03:56:59;25.60;;;21.17;;
39022;SDS011;25908;51.984;5.928;2023-04-24T03:59:26;25.83;;;21.40;;
39022;SDS011;25908;51.984;5.928;2023-04-24T04:01:51;26.88;;;22.90;;
39022;SDS011;25908;51.984;5.928;2023-04-24T04:04:17;27.67;;;22.85;;
39022;SDS011;25908;51.984;5.928;2023-04-24T04:06:43;28.00;;;23.88;;
39022;SDS011;25908;51.984;5.928;2023-04-24T04:09:09;25.77;;;21.70;;
39022;SDS011;25908;51.984;5.928;2023-04-24T04:11:35;29.42;;;24.17;;
39022;SDS011;25908;51.984;5.928;2023-04-24T04:14:01;28.63;;;22.90;;
39022;SDS011;25908;51.984;5.928;2023-04-24T04:16:27;29.83;;;24.42;;
39022;SDS011;25908;51.984;5.928;2023-04-24T04:18:53;29.23;;;24.20;;
39022;SDS011;25908;51.984;5.928;2023-04-24T04:21:18;26.85;;;22.48;;
39022;SDS011;25908;51.984;5.928;2023-04-24T04:23:44;29.30;;;23.80;;
39022;SDS011;25908;51.984;5.928;2023-04-24T04:26:10;26.13;;;21.70;;
39022;SDS011;25908;51.984;5.928;2023-04-24T04:28:37;27.88;;;22.42;;
39022;SDS011;25908;51.984;5.928;2023-04-24T04:31:04;29.75;;;23.15;;
39022;SDS011;25908;51.984;5.928;2023-04-24T04:33:29;25.80;;;21.52;;
39022;SDS011;25908;51.984;5.928;2023-04-24T04:35:55;26.38;;;22.40;;
39022;SDS011;25908;51.984;5.928;2023-04-24T04:38:22;26.25;;;22.15;;
39022;SDS011;25908;51.984;5.928;2023-04-24T04:40:47;27.30;;;21.80;;
39022;SDS011;25908;51.984;5.928;2023-04-24T04:43:13;24.55;;;20.17;;
39022;SDS011;25908;51.984;5.928;2023-04-24T04:45:39;23.42;;;20.60;;
39022;SDS011;25908;51.984;5.928;2023-04-24T04:48:07;25.70;;;20.98;;
39022;SDS011;25908;51.984;5.928;2023-04-24T04:50:34;26.77;;;21.35;;
39022;SDS011;25908;51.984;5.928;2023-04-24T04:53:00;26.00;;;19.30;;
39022;SDS011;25908;51.984;5.928;2023-04-24T04:55:27;28.80;;;19.45;;
39022;SDS011;25908;51.984;5.928;2023-04-24T04:57:53;24.50;;;20.33;;
39022;SDS011;25908;51.984;5.928;2023-04-24T05:00:20;23.67;;;18.83;;
39022;SDS011;25908;51.984;5.928;2023-04-24T05:02:46;21.20;;;17.88;;
39022;SDS011;25908;51.984;5.928;2023-04-24T05:05:11;23.65;;;18.75;;
39022;SDS011;25908;51.984;5.928;2023-04-24T05:07:37;22.60;;;18.42;;
39022;SDS011;25908;51.984;5.928;2023-04-24T05:10:03;22.05;;;17.55;;
39022;SDS011;25908;51.984;5.928;2023-04-24T05:12:29;21.85;;;18.17;;
39022;SDS011;25908;51.984;5.928;2023-04-24T05:14:54;21.55;;;18.17;;
39022;SDS011;25908;51.984;5.928;2023-04-24T05:17:20;20.75;;;17.42;;
39022;SDS011;25908;51.984;5.928;2023-04-24T05:19:45;20.25;;;17.15;;
39022;SDS011;25908;51.984;5.928;2023-04-24T05:22:11;21.48;;;16.90;;
39022;SDS011;25908;51.984;5.928;2023-04-24T05:24:37;21.20;;;16.17;;
39022;SDS011;25908;51.984;5.928;2023-04-24T05:27:03;20.88;;;17.40;;
39022;SDS011;25908;51.984;5.928;2023-04-24T05:29:32;20.02;;;15.90;;
39022;SDS011;25908;51.984;5.928;2023-04-24T05:31:58;18.73;;;16.33;;
39022;SDS011;25908;51.984;5.928;2023-04-24T05:34:25;22.15;;;15.98;;
39022;SDS011;25908;51.984;5.928;2023-04-24T05:36:50;18.50;;;15.65;;
39022;SDS011;25908;51.984;5.928;2023-04-24T05:39:16;19.92;;;15.25;;
39022;SDS011;25908;51.984;5.928;2023-04-24T05:41:42;17.30;;;15.00;;
39022;SDS011;25908;51.984;5.928;2023-04-24T05:44:08;20.23;;;14.98;;
39022;SDS011;25908;51.984;5.928;2023-04-24T05:46:34;18.08;;;14.77;;
39022;SDS011;25908;51.984;5.928;2023-04-24T05:49:00;16.42;;;13.40;;
39022;SDS011;25908;51.984;5.928;2023-04-24T05:51:25;17.55;;;14.35;;
39022;SDS011;25908;51.984;5.928;2023-04-24T05:53:51;16.80;;;13.57;;
39022;SDS011;25908;51.984;5.928;2023-04-24T05:56:17;15.98;;;13.07;;
39022;SDS011;25908;51.984;5.928;2023-04-24T05:58:43;15.95;;;13.48;;
39022;SDS011;25908;51.984;5.928;2023-04-24T06:01:10;14.32;;;11.90;;
39022;SDS011;25908;51.984;5.928;2023-04-24T06:03:36;15.13;;;12.45;;
39022;SDS011;25908;51.984;5.928;2023-04-24T06:06:05;14.57;;;11.82;;
39022;SDS011;25908;51.984;5.928;2023-04-24T06:08:31;14.15;;;12.07;;
39022;SDS011;25908;51.984;5.928;2023-04-24T06:10:57;14.48;;;11.57;;
39022;SDS011;25908;51.984;5.928;2023-04-24T06:13:23;16.83;;;12.07;;
39022;SDS011;25908;51.984;5.928;2023-04-24T06:15:49;13.07;;;11.57;;
39022;SDS011;25908;51.984;5.928;2023-04-24T06:18:15;12.70;;;10.93;;
39022;SDS011;25908;51.984;5.928;2023-04-24T06:20:40;12.57;;;10.27;;
39022;SDS011;25908;51.984;5.928;2023-04-24T06:23:06;12.50;;;10.38;;
39022;SDS011;25908;51.984;5.928;2023-04-24T06:25:32;12.27;;;9.88;;
39022;SDS011;25908;51.984;5.928;2023-04-24T06:27:58;11.45;;;9.65;;
39022;SDS011;25908;51.984;5.928;2023-04-24T06:30:23;12.02;;;9.48;;
39022;SDS011;25908;51.984;5.928;2023-04-24T06:32:50;16.42;;;10.23;;
39022;SDS011;25908;51.984;5.928;2023-04-24T06:35:15;11.13;;;9.10;;
39022;SDS011;25908;51.984;5.928;2023-04-24T06:37:41;10.98;;;8.93;;
39022;SDS011;25908;51.984;5.928;2023-04-24T06:40:08;13.90;;;9.65;;
39022;SDS011;25908;51.984;5.928;2023-04-24T06:42:35;11.18;;;8.85;;
39022;SDS011;25908;51.984;5.928;2023-04-24T06:45:01;11.45;;;8.43;;
39022;SDS011;25908;51.984;5.928;2023-04-24T06:47:27;11.52;;;8.68;;
39022;SDS011;25908;51.984;5.928;2023-04-24T06:49:52;11.13;;;8.23;;
39022;SDS011;25908;51.984;5.928;2023-04-24T06:52:18;10.00;;;7.75;;
39022;SDS011;25908;51.984;5.928;2023-04-24T06:54:44;9.50;;;7.43;;
39022;SDS011;25908;51.984;5.928;2023-04-24T06:57:10;8.93;;;6.93;;
39022;SDS011;25908;51.984;5.928;2023-04-24T06:59:36;9.38;;;6.95;;
39022;SDS011;25908;51.984;5.928;2023-04-24T07:02:02;7.93;;;5.97;;
39022;SDS011;25908;51.984;5.928;2023-04-24T07:04:28;10.60;;;6.22;;
39022;SDS011;25908;51.984;5.928;2023-04-24T07:06:54;7.63;;;5.20;;
39022;SDS011;25908;51.984;5.928;2023-04-24T07:09:23;7.68;;;4.43;;
39022;SDS011;25908;51.984;5.928;2023-04-24T07:11:50;5.55;;;3.92;;
39022;SDS011;25908;51.984;5.928;2023-04-24T07:14:16;6.22;;;4.28;;
39022;SDS011;25908;51.984;5.928;2023-04-24T07:16:42;5.75;;;3.60;;
39022;SDS011;25908;51.984;5.928;2023-04-24T07:19:09;5.93;;;3.65;;
39022;SDS011;25908;51.984;5.928;2023-04-24T07:21:35;4.43;;;3.13;;
39022;SDS011;25908;51.984;5.928;2023-04-24T07:24:00;3.97;;;2.72;;
39022;SDS011;25908;51.984;5.928;2023-04-24T07:26:28;4.30;;;2.85;;
39022;SDS011;25908;51.984;5.928;2023-04-24T07:28:54;5.68;;;2.70;;
39022;SDS011;25908;51.984;5.928;2023-04-24T07:31:21;4.60;;;2.40;;
39022;SDS011;25908;51.984;5.928;2023-04-24T07:33:47;4.85;;;2.13;;
39022;SDS011;25908;51.984;5.928;2023-04-24T07:36:13;3.72;;;2.08;;
39022;SDS011;25908;51.984;5.928;2023-04-24T07:38:42;3.00;;;1.98;;
39022;SDS011;25908;51.984;5.928;2023-04-24T07:41:08;3.30;;;1.95;;
39022;SDS011;25908;51.984;5.928;2023-04-24T07:43:34;3.17;;;1.65;;
39022;SDS011;25908;51.984;5.928;2023-04-24T07:46:00;2.88;;;1.70;;
39022;SDS011;25908;51.984;5.928;2023-04-24T07:48:26;3.50;;;2.33;;
39022;SDS011;25908;51.984;5.928;2023-04-24T07:50:52;2.70;;;1.90;;
39022;SDS011;25908;51.984;5.928;2023-04-24T07:53:18;3.95;;;2.72;;
39022;SDS011;25908;51.984;5.928;2023-04-24T07:55:43;4.70;;;3.10;;
39022;SDS011;25908;51.984;5.928;2023-04-24T07:58:09;6.80;;;3.33;;
39022;SDS011;25908;51.984;5.928;2023-04-24T08:00:35;6.63;;;4.35;;
39022;SDS011;25908;51.984;5.928;2023-04-24T08:03:02;6.65;;;4.18;;
39022;SDS011;25908;51.984;5.928;2023-04-24T08:05:27;9.13;;;4.70;;
39022;SDS011;25908;51.984;5.928;2023-04-24T08:07:59;7.78;;;5.05;;
39022;SDS011;25908;51.984;5.928;2023-04-24T08:10:25;6.70;;;4.72;;
39022;SDS011;25908;51.984;5.928;2023-04-24T08:12:51;7.95;;;5.53;;
39022;SDS011;25908;51.984;5.928;2023-04-24T08:15:20;6.32;;;4.60;;
39022;SDS011;25908;51.984;5.928;2023-04-24T08:17:46;6.55;;;4.60;;
39022;SDS011;25908;51.984;5.928;2023-04-24T08:20:12;7.22;;;5.20;;
39022;SDS011;25908;51.984;5.928;2023-04-24T08:22:40;9.07;;;5.40;;
39022;SDS011;25908;51.984;5.928;2023-04-24T08:25:07;8.70;;;5.18;;
39022;SDS011;25908;51.984;5.928;2023-04-24T08:27:34;8.63;;;5.40;;
39022;SDS011;25908;51.984;5.928;2023-04-24T08:30:01;6.70;;;5.28;;
39022;SDS011;25908;51.984;5.928;2023-04-24T08:32:28;10.30;;;5.93;;
39022;SDS011;25908;51.984;5.928;2023-04-24T08:34:55;10.68;;;5.80;;
39022;SDS011;25908;51.984;5.928;2023-04-24T08:37:25;8.00;;;5.88;;
39022;SDS011;25908;51.984;5.928;2023-04-24T08:39:52;7.90;;;5.25;;
39022;SDS011;25908;51.984;5.928;2023-04-24T08:42:19;10.07;;;5.90;;
39022;SDS011;25908;51.984;5.928;2023-04-24T08:44:45;11.23;;;6.00;;
39022;SDS011;25908;51.984;5.928;2023-04-24T08:47:15;11.48;;;7.50;;
39022;SDS011;25908;51.984;5.928;2023-04-24T08:49:41;10.50;;;6.60;;
39022;SDS011;25908;51.984;5.928;2023-04-24T08:52:08;9.60;;;7.13;;
39022;SDS011;25908;51.984;5.928;2023-04-24T08:54:37;10.65;;;6.45;;
39022;SDS011;25908;51.984;5.928;2023-04-24T08:57:04;10.43;;;7.05;;
39022;SDS011;25908;51.984;5.928;2023-04-24T08:59:32;14.23;;;6.93;;
39022;SDS011;25908;51.984;5.928;2023-04-24T09:02:00;7.82;;;6.07;;
39022;SDS011;25908;51.984;5.928;2023-04-24T09:04:28;10.15;;;5.80;;
39022;SDS011;25908;51.984;5.928;2023-04-24T09:06:55;8.93;;;5.05;;
39022;SDS011;25908;51.984;5.928;2023-04-24T09:09:22;8.63;;;4.97;;
39022;SDS011;25908;51.984;5.928;2023-04-24T09:11:50;9.25;;;4.97;;
39022;SDS011;25908;51.984;5.928;2023-04-24T09:14:18;6.75;;;4.20;;
39022;SDS011;25908;51.984;5.928;2023-04-24T09:16:46;6.88;;;3.72;;
39022;SDS011;25908;51.984;5.928;2023-04-24T09:19:12;8.60;;;3.72;;
39022;SDS011;25908;51.984;5.928;2023-04-24T09:21:38;10.32;;;3.85;;
39022;SDS011;25908;51.984;5.928;2023-04-24T09:24:06;8.15;;;3.95;;
39022;SDS011;25908;51.984;5.928;2023-04-24T09:26:34;10.95;;;4.13;;
39022;SDS011;25908;51.984;5.928;2023-04-24T09:29:01;10.43;;;4.53;;
39022;SDS011;25908;51.984;5.928;2023-04-24T09:31:29;11.30;;;3.55;;
39022;SDS011;25908;51.984;5.928;2023-04-24T09:33:59;9.55;;;3.28;;
39022;SDS011;25908;51.984;5.928;2023-04-24T09:36:28;10.95;;;3.40;;
39022;SDS011;25908;51.984;5.928;2023-04-24T09:39:01;7.93;;;3.70;;
39022;SDS011;25908;51.984;5.928;2023-04-24T09:41:27;9.75;;;3.00;;
39022;SDS011;25908;51.984;5.928;2023-04-24T09:43:56;9.07;;;3.00;;
39022;SDS011;25908;51.984;5.928;2023-04-24T09:46:29;9.45;;;3.75;;
39022;SDS011;25908;51.984;5.928;2023-04-24T09:48:56;11.35;;;3.08;;
39022;SDS011;25908;51.984;5.928;2023-04-24T09:51:33;9.85;;;2.85;;
39022;SDS011;25908;51.984;5.928;2023-04-24T09:54:01;9.48;;;2.70;;
39022;SDS011;25908;51.984;5.928;2023-04-24T09:56:28;10.50;;;2.42;;
39022;SDS011;25908;51.984;5.928;2023-04-24T09:59:03;9.73;;;3.03;;
39022;SDS011;25908;51.984;5.928;2023-04-24T10:01:33;11.60;;;3.20;;
39022;SDS011;25908;51.984;5.928;2023-04-24T10:03:59;11.48;;;3.35;;
39022;SDS011;25908;51.984;5.928;2023-04-24T10:06:32;8.77;;;2.55;;
39022;SDS011;25908;51.984;5.928;2023-04-24T10:08:59;6.15;;;2.47;;
39022;SDS011;25908;51.984;5.928;2023-04-24T10:11:26;9.15;;;2.83;;
39022;SDS011;25908;51.984;5.928;2023-04-24T10:13:52;11.27;;;3.17;;
39022;SDS011;25908;51.984;5.928;2023-04-24T10:16:18;13.82;;;3.03;;
39022;SDS011;25908;51.984;5.928;2023-04-24T10:18:46;12.25;;;3.22;;
39022;SDS011;25908;51.984;5.928;2023-04-24T10:21:13;15.75;;;3.70;;
39022;SDS011;25908;51.984;5.928;2023-04-24T10:23:41;8.68;;;3.03;;
39022;SDS011;25908;51.984;5.928;2023-04-24T10:26:08;9.68;;;2.80;;
39022;SDS011;25908;51.984;5.928;2023-04-24T10:28:35;8.15;;;2.70;;
39022;SDS011;25908;51.984;5.928;2023-04-24T10:31:01;8.13;;;3.45;;
39022;SDS011;25908;51.984;5.928;2023-04-24T10:33:27;11.07;;;3.28;;
39022;SDS011;25908;51.984;5.928;2023-04-24T10:35:55;8.38;;;3.15;;
39022;SDS011;25908;51.984;5.928;2023-04-24T10:38:24;10.20;;;2.95;;
39022;SDS011;25908;51.984;5.928;2023-04-24T10:40:51;8.32;;;3.15;;
39022;SDS011;25908;51.984;5.928;2023-04-24T10:43:23;10.32;;;2.60;;
39022;SDS011;25908;51.984;5.928;2023-04-24T10:46:01;7.82;;;2.83;;
39022;SDS011;25908;51.984;5.928;2023-04-24T10:48:28;8.98;;;2.30;;
39022;SDS011;25908;51.984;5.928;2023-04-24T10:50:54;6.15;;;1.95;;
39022;SDS011;25908;51.984;5.928;2023-04-24T10:53:21;6.78;;;1.65;;
39022;SDS011;25908;51.984;5.928;2023-04-24T10:58:15;9.35;;;2.15;;
39022;SDS011;25908;51.984;5.928;2023-04-24T11:00:42;5.85;;;1.77;;
39022;SDS011;25908;51.984;5.928;2023-04-24T11:03:27;8.30;;;2.08;;
39022;SDS011;25908;51.984;5.928;2023-04-24T11:05:56;7.88;;;2.22;;
39022;SDS011;25908;51.984;5.928;2023-04-24T11:08:39;6.85;;;2.38;;
39022;SDS011;25908;51.984;5.928;2023-04-24T11:19:17;7.78;;;2.08;;
39022;SDS011;25908;51.984;5.928;2023-04-24T11:21:57;5.70;;;1.42;;
39022;SDS011;25908;51.984;5.928;2023-04-24T11:24:28;3.67;;;1.27;;
39022;SDS011;25908;51.984;5.928;2023-04-24T11:29:38;3.55;;;1.10;;
39022;SDS011;25908;51.984;5.928;2023-04-24T11:37:41;2.90;;;1.17;;
39022;SDS011;25908;51.984;5.928;2023-04-24T11:40:09;3.70;;;0.88;;
39022;SDS011;25908;51.984;5.928;2023-04-24T11:42:43;3.15;;;1.13;;
39022;SDS011;25908;51.984;5.928;2023-04-24T11:47:42;4.95;;;0.90;;
39022;SDS011;25908;51.984;5.928;2023-04-24T11:50:10;3.58;;;0.93;;
39022;SDS011;25908;51.984;5.928;2023-04-24T11:52:37;2.42;;;0.52;;
39022;SDS011;25908;51.984;5.928;2023-04-24T11:55:06;4.45;;;0.70;;
39022;SDS011;25908;51.984;5.928;2023-04-24T11:57:50;2.45;;;0.70;;
39022;SDS011;25908;51.984;5.928;2023-04-24T12:00:19;4.68;;;0.80;;
39022;SDS011;25908;51.984;5.928;2023-04-24T12:02:49;1.95;;;0.60;;
39022;SDS011;25908;51.984;5.928;2023-04-24T12:05:19;4.60;;;0.90;;
39022;SDS011;25908;51.984;5.928;2023-04-24T12:07:49;3.25;;;0.70;;
39022;SDS011;25908;51.984;5.928;2023-04-24T12:10:21;2.25;;;0.60;;
39022;SDS011;25908;51.984;5.928;2023-04-24T12:12:51;3.83;;;0.70;;
39022;SDS011;25908;51.984;5.928;2023-04-24T12:15:21;2.80;;;0.73;;
39022;SDS011;25908;51.984;5.928;2023-04-24T12:17:47;2.45;;;0.82;;
39022;SDS011;25908;51.984;5.928;2023-04-24T12:20:15;4.00;;;1.05;;
39022;SDS011;25908;51.984;5.928;2023-04-24T12:22:47;3.83;;;0.70;;
39022;SDS011;25908;51.984;5.928;2023-04-24T12:25:16;1.60;;;0.55;;
39022;SDS011;25908;51.984;5.928;2023-04-24T12:27:46;4.53;;;0.90;;
39022;SDS011;25908;51.984;5.928;2023-04-24T12:30:17;6.05;;;0.70;;
39022;SDS011;25908;51.984;5.928;2023-04-24T12:32:47;3.15;;;0.73;;
39022;SDS011;25908;51.984;5.928;2023-04-24T12:35:21;2.22;;;0.77;;
39022;SDS011;25908;51.984;5.928;2023-04-24T12:37:48;3.25;;;0.60;;
39022;SDS011;25908;51.984;5.928;2023-04-24T12:40:14;2.83;;;0.80;;
39022;SDS011;25908;51.984;5.928;2023-04-24T12:42:42;4.28;;;0.80;;
39022;SDS011;25908;51.984;5.928;2023-04-24T12:45:08;2.55;;;0.73;;
39022;SDS011;25908;51.984;5.928;2023-04-24T12:47:34;3.17;;;0.85;;
39022;SDS011;25908;51.984;5.928;2023-04-24T12:50:01;3.63;;;0.95;;
39022;SDS011;25908;51.984;5.928;2023-04-24T12:52:28;4.07;;;1.02;;
39022;SDS011;25908;51.984;5.928;2023-04-24T12:54:55;3.38;;;0.68;;
39022;SDS011;25908;51.984;5.928;2023-04-24T12:57:22;3.70;;;0.70;;
39022;SDS011;25908;51.984;5.928;2023-04-24T12:59:48;2.22;;;0.55;;
39022;SDS011;25908;51.984;5.928;2023-04-24T13:02:13;4.38;;;0.70;;
39022;SDS011;25908;51.984;5.928;2023-04-24T13:04:42;1.88;;;0.60;;
39022;SDS011;25908;51.984;5.928;2023-04-24T13:07:12;3.28;;;0.80;;
39022;SDS011;25908;51.984;5.928;2023-04-24T13:09:41;4.43;;;0.80;;
39022;SDS011;25908;51.984;5.928;2023-04-24T13:12:08;2.35;;;0.70;;
39022;SDS011;25908;51.984;5.928;2023-04-24T13:14:34;2.22;;;0.50;;
39022;SDS011;25908;51.984;5.928;2023-04-24T13:17:00;3.72;;;0.75;;
39022;SDS011;25908;51.984;5.928;2023-04-24T13:19:26;4.78;;;0.80;;
39022;SDS011;25908;51.984;5.928;2023-04-24T13:21:52;3.80;;;0.95;;
39022;SDS011;25908;51.984;5.928;2023-04-24T13:24:22;6.47;;;1.00;;
39022;SDS011;25908;51.984;5.928;2023-04-24T13:26:51;5.03;;;1.10;;
39022;SDS011;25908;51.984;5.928;2023-04-24T13:29:18;1.92;;;0.68;;
39022;SDS011;25908;51.984;5.928;2023-04-24T13:31:43;5.13;;;1.00;;
39022;SDS011;25908;51.984;5.928;2023-04-24T13:34:09;6.18;;;0.95;;
39022;SDS011;25908;51.984;5.928;2023-04-24T13:36:35;7.00;;;1.50;;
39022;SDS011;25908;51.984;5.928;2023-04-24T13:39:01;3.85;;;1.17;;
39022;SDS011;25908;51.984;5.928;2023-04-24T13:41:29;6.50;;;1.38;;
39022;SDS011;25908;51.984;5.928;2023-04-24T13:43:55;4.60;;;1.52;;
39022;SDS011;25908;51.984;5.928;2023-04-24T13:46:21;4.50;;;1.17;;
39022;SDS011;25908;51.984;5.928;2023-04-24T13:48:46;6.10;;;1.70;;
39022;SDS011;25908;51.984;5.928;2023-04-24T13:51:12;6.40;;;1.25;;
39022;SDS011;25908;51.984;5.928;2023-04-24T13:53:38;5.55;;;1.13;;
39022;SDS011;25908;51.984;5.928;2023-04-24T13:56:04;4.45;;;1.40;;
39022;SDS011;25908;51.984;5.928;2023-04-24T13:58:31;4.00;;;0.93;;
39022;SDS011;25908;51.984;5.928;2023-04-24T14:00:57;5.85;;;1.40;;
39022;SDS011;25908;51.984;5.928;2023-04-24T14:03:23;6.60;;;1.30;;
39022;SDS011;25908;51.984;5.928;2023-04-24T14:05:49;6.15;;;1.25;;
39022;SDS011;25908;51.984;5.928;2023-04-24T14:08:14;5.15;;;1.67;;
39022;SDS011;25908;51.984;5.928;2023-04-24T14:10:40;4.30;;;1.50;;
39022;SDS011;25908;51.984;5.928;2023-04-24T14:13:06;5.13;;;1.38;;
39022;SDS011;25908;51.984;5.928;2023-04-24T14:15:31;4.85;;;1.45;;
39022;SDS011;25908;51.984;5.928;2023-04-24T14:17:57;5.65;;;2.15;;
39022;SDS011;25908;51.984;5.928;2023-04-24T14:20:23;6.88;;;1.75;;
39022;SDS011;25908;51.984;5.928;2023-04-24T14:22:49;8.75;;;1.70;;
39022;SDS011;25908;51.984;5.928;2023-04-24T14:25:15;4.55;;;1.23;;
39022;SDS011;25908;51.984;5.928;2023-04-24T14:27:40;7.85;;;1.77;;
39022;SDS011;25908;51.984;5.928;2023-04-24T14:30:06;6.18;;;1.75;;
39022;SDS011;25908;51.984;5.928;2023-04-24T14:32:32;5.50;;;1.70;;
39022;SDS011;25908;51.984;5.928;2023-04-24T14:34:58;7.28;;;1.73;;
39022;SDS011;25908;51.984;5.928;2023-04-24T14:37:24;10.05;;;1.65;;
39022;SDS011;25908;51.984;5.928;2023-04-24T14:39:49;6.25;;;1.58;;
39022;SDS011;25908;51.984;5.928;2023-04-24T14:42:15;5.28;;;1.48;;
39022;SDS011;25908;51.984;5.928;2023-04-24T14:44:42;6.60;;;1.85;;
39022;SDS011;25908;51.984;5.928;2023-04-24T14:47:08;8.85;;;2.38;;
39022;SDS011;25908;51.984;5.928;2023-04-24T14:49:34;8.15;;;2.63;;
39022;SDS011;25908;51.984;5.928;2023-04-24T14:52:00;6.50;;;2.05;;
39022;SDS011;25908;51.984;5.928;2023-04-24T14:54:27;6.15;;;1.58;;
39022;SDS011;25908;51.984;5.928;2023-04-24T14:56:53;8.35;;;2.20;;